Time;durP1;ratioP1;P1;durP2;ratioP2;P2;SDS_P1;SDS_P2;PMS_P1;PMS_P2;Temp;Humidity;BMP_temperature;BMP_pressure;BME280_temperature;BME280_humidity;BME280_pressure;Samples;Min_cycle;Max_cycle;Signal;HPM_P1;HPM_P2
2021/11/06 00:01:09;;;;;;;14.20;11.88;;;29.60;88.20;;;;;;5125142;28;20027;-51
2021/11/06 00:03:35;;;;;;;16.05;12.07;;;29.50;88.00;;;;;;5125333;28;20020;-50
2021/11/06 00:06:02;;;;;;;14.20;11.85;;;29.50;88.00;;;;;;5123793;28;20271;-50
2021/11/06 00:08:29;;;;;;;15.38;11.63;;;29.50;88.00;;;;;;5125224;28;20028;-51
2021/11/06 00:10:56;;;;;;;14.10;10.98;;;29.50;88.10;;;;;;5124682;28;20019;-48
2021/11/06 00:13:23;;;;;;;16.42;13.40;;;29.50;88.20;;;;;;5125025;28;20091;-52
2021/11/06 00:15:50;;;;;;;12.57;11.38;;;29.50;88.10;;;;;;5124465;28;20046;-46
2021/11/06 00:18:16;;;;;;;13.38;11.25;;;29.50;88.00;;;;;;5123560;28;20028;-50
2021/11/06 00:20:43;;;;;;;15.48;11.20;;;29.40;87.90;;;;;;5123619;28;20086;-49
2021/11/06 00:23:10;;;;;;;19.38;12.05;;;29.40;87.90;;;;;;5124737;28;20031;-50
2021/11/06 00:25:36;;;;;;;18.30;12.23;;;29.40;87.90;;;;;;5124520;28;20015;-52
2021/11/06 00:28:03;;;;;;;16.98;13.18;;;29.40;88.10;;;;;;5124801;28;20046;-51
2021/11/06 00:30:30;;;;;;;16.17;12.63;;;29.40;88.10;;;;;;5124680;28;20011;-57
2021/11/06 00:32:57;;;;;;;18.27;12.15;;;29.40;88.00;;;;;;5124793;28;20027;-55
2021/11/06 00:35:24;;;;;;;15.55;11.70;;;29.30;87.90;;;;;;5124761;28;20045;-56
2021/11/06 00:37:51;;;;;;;18.00;11.05;;;29.30;88.30;;;;;;5124604;28;20307;-55
2021/11/06 00:40:18;;;;;;;15.13;12.02;;;29.30;87.90;;;;;;5124376;28;20030;-49
2021/11/06 00:42:45;;;;;;;16.45;11.15;;;29.30;87.60;;;;;;5124661;28;20095;-50
2021/11/06 00:45:13;;;;;;;15.80;10.80;;;29.30;87.50;;;;;;5123083;28;20019;-48
2021/11/06 00:47:41;;;;;;;15.45;10.68;;;29.30;87.50;;;;;;5124211;28;20035;-49
2021/11/06 00:50:09;;;;;;;14.10;10.48;;;29.30;87.40;;;;;;5124468;28;20250;-48
2021/11/06 00:52:36;;;;;;;14.23;10.77;;;29.30;87.30;;;;;;5124537;28;20069;-49
2021/11/06 00:55:05;;;;;;;15.00;11.80;;;29.20;87.20;;;;;;5124353;28;20265;-45
2021/11/06 00:57:31;;;;;;;16.70;12.88;;;29.30;87.50;;;;;;5124345;28;20027;-50
2021/11/06 00:59:58;;;;;;;27.58;17.25;;;29.30;87.50;;;;;;5124220;28;20338;-49
2021/11/06 01:02:24;;;;;;;34.10;21.02;;;29.20;87.40;;;;;;5124454;28;20056;-52
2021/11/06 01:04:51;;;;;;;36.58;21.90;;;29.20;87.50;;;;;;5124173;28;20019;-51
2021/11/06 01:07:18;;;;;;;35.92;23.40;;;29.20;87.50;;;;;;5124152;28;20098;-53
2021/11/06 01:09:45;;;;;;;33.40;21.05;;;29.20;87.50;;;;;;5124281;28;20203;-48
2021/11/06 01:12:11;;;;;;;29.23;19.85;;;29.20;87.60;;;;;;5124280;28;20028;-47
2021/11/06 01:14:38;;;;;;;32.40;18.65;;;29.20;87.70;;;;;;5123270;28;20020;-51
2021/11/06 01:17:05;;;;;;;22.48;16.30;;;29.20;87.80;;;;;;5123944;28;20055;-52
2021/11/06 01:19:31;;;;;;;21.30;14.98;;;29.20;87.80;;;;;;5124045;28;20366;-51
2021/11/06 01:21:58;;;;;;;18.48;13.75;;;29.20;87.80;;;;;;5123860;28;20307;-47
2021/11/06 01:24:25;;;;;;;18.73;13.82;;;29.10;87.80;;;;;;5124529;28;20037;-43
2021/11/06 01:26:53;;;;;;;16.92;12.73;;;29.10;87.90;;;;;;5128530;28;20027;-48
2021/11/06 01:29:23;;;;;;;22.73;15.02;;;29.10;88.00;;;;;;5128498;28;20225;-48
2021/11/06 01:31:53;;;;;;;17.70;13.63;;;29.10;88.00;;;;;;5127148;28;20212;-50
2021/11/06 01:34:20;;;;;;;17.75;12.35;;;29.10;88.00;;;;;;5127806;28;20019;-52
2021/11/06 01:36:46;;;;;;;14.32;12.15;;;29.00;88.10;;;;;;5127589;28;20031;-52
2021/11/06 01:39:13;;;;;;;17.15;12.32;;;29.00;88.20;;;;;;5127924;28;20320;-50
2021/11/06 01:41:39;;;;;;;16.45;12.60;;;29.00;88.20;;;;;;5127625;28;20018;-51
2021/11/06 01:44:06;;;;;;;18.77;12.73;;;29.00;88.20;;;;;;5127364;28;20012;-48
2021/11/06 01:46:33;;;;;;;16.42;12.88;;;29.10;88.20;;;;;;5126778;28;20066;-50
2021/11/06 01:49:00;;;;;;;18.23;12.77;;;29.00;88.20;;;;;;5127225;28;20039;-49
2021/11/06 01:51:26;;;;;;;18.42;11.93;;;29.00;88.20;;;;;;5127035;28;20035;-51
2021/11/06 01:53:53;;;;;;;17.27;11.60;;;29.00;88.20;;;;;;5127803;28;20065;-50
2021/11/06 01:56:21;;;;;;;12.88;11.15;;;29.00;88.30;;;;;;5127285;28;20035;-52
2021/11/06 01:58:48;;;;;;;15.23;11.15;;;29.00;88.30;;;;;;5127572;28;20020;-52
2021/11/06 02:01:15;;;;;;;14.73;11.23;;;29.00;88.30;;;;;;5127380;28;20037;-48
2021/11/06 02:03:41;;;;;;;15.05;11.40;;;29.00;88.40;;;;;;5127905;28;20011;-51
2021/11/06 02:06:08;;;;;;;13.23;11.32;;;29.00;88.50;;;;;;5127142;28;20031;-55
2021/11/06 02:08:35;;;;;;;19.92;11.73;;;28.90;88.40;;;;;;5127484;28;20069;-50
2021/11/06 02:11:05;;;;;;;15.88;11.02;;;28.90;88.50;;;;;;5125872;28;20193;-54
2021/11/06 02:13:32;;;;;;;12.75;10.60;;;28.90;88.50;;;;;;5127181;28;20091;-53
2021/11/06 02:15:59;;;;;;;13.57;10.77;;;28.90;88.50;;;;;;5126881;28;20027;-54
2021/11/06 02:18:26;;;;;;;14.85;10.10;;;28.90;88.70;;;;;;5125781;28;20027;-47
2021/11/06 02:21:07;;;;;;;15.05;10.10;;;28.90;88.80;;;;;;5126588;28;20027;-46
2021/11/06 02:23:39;;;;;;;17.67;10.00;;;28.80;88.70;;;;;;5127205;28;20019;-51
2021/11/06 02:26:11;;;;;;;17.58;10.30;;;28.80;88.80;;;;;;5126922;28;20236;-54
2021/11/06 02:28:38;;;;;;;17.42;10.68;;;28.80;88.80;;;;;;5127277;28;20039;-50
2021/11/06 02:31:06;;;;;;;12.38;9.93;;;28.80;88.90;;;;;;5126627;28;20034;-50
2021/11/06 02:33:33;;;;;;;15.35;11.10;;;28.80;88.90;;;;;;5126628;28;20050;-52
2021/11/06 02:36:02;;;;;;;14.07;12.05;;;28.80;88.90;;;;;;5126488;27;20027;-50
2021/11/06 02:38:29;;;;;;;16.13;11.57;;;28.70;88.70;;;;;;5126779;27;20204;-54
2021/11/06 02:40:56;;;;;;;14.40;11.88;;;28.70;88.60;;;;;;5126524;28;20375;-50
2021/11/06 02:43:23;;;;;;;16.40;11.35;;;28.70;88.50;;;;;;5127179;28;20026;-51
2021/11/06 02:45:50;;;;;;;15.63;11.98;;;28.70;88.50;;;;;;5126661;28;20068;-52
2021/11/06 02:48:17;;;;;;;17.38;11.75;;;28.70;88.50;;;;;;5125123;28;20047;-52
2021/11/06 02:50:44;;;;;;;92.28;16.73;;;28.70;88.40;;;;;;5126456;28;20054;-49
2021/11/06 02:53:11;;;;;;;37.35;12.05;;;28.70;88.50;;;;;;5126773;28;20035;-53
2021/11/06 02:55:38;;;;;;;22.20;11.45;;;28.60;88.40;;;;;;5126495;28;20062;-52
2021/11/06 02:58:05;;;;;;;17.17;9.95;;;28.60;88.40;;;;;;5126471;28;20092;-53
2021/11/06 03:00:32;;;;;;;16.02;10.60;;;28.60;88.20;;;;;;5126267;28;20011;-51
2021/11/06 03:02:59;;;;;;;18.33;10.15;;;28.60;88.30;;;;;;5126342;27;20199;-49
2021/11/06 03:05:26;;;;;;;19.73;10.48;;;28.60;88.40;;;;;;5126268;28;20021;-49
2021/11/06 03:07:53;;;;;;;13.95;10.68;;;28.60;88.40;;;;;;5126435;28;20068;-51
2021/11/06 03:10:20;;;;;;;15.13;10.70;;;28.60;88.40;;;;;;5126180;28;20023;-53
2021/11/06 03:12:48;;;;;;;13.65;9.18;;;28.60;88.60;;;;;;5126273;28;20084;-54
2021/11/06 03:15:15;;;;;;;15.13;9.98;;;28.60;88.50;;;;;;5125842;28;20057;-55
2021/11/06 03:17:43;;;;;;;13.10;10.13;;;28.60;88.50;;;;;;5124525;28;20035;-55
2021/11/06 03:20:12;;;;;;;14.68;10.45;;;28.60;88.50;;;;;;5125746;28;20022;-51
2021/11/06 03:22:39;;;;;;;13.80;9.55;;;28.60;88.40;;;;;;5125852;28;20322;-49
2021/11/06 03:25:07;;;;;;;15.43;9.95;;;28.60;88.40;;;;;;5125638;28;20028;-49
2021/11/06 03:27:34;;;;;;;11.75;10.32;;;28.60;88.30;;;;;;5126180;28;20208;-47
2021/11/06 03:30:01;;;;;;;13.57;9.80;;;28.50;88.30;;;;;;5125545;28;20015;-46
2021/11/06 03:32:28;;;;;;;16.30;10.10;;;28.50;88.20;;;;;;5125502;28;20027;-49
2021/11/06 03:34:55;;;;;;;12.60;9.98;;;28.50;88.30;;;;;;5125425;28;20011;-49
2021/11/06 03:37:25;;;;;;;15.82;10.07;;;28.50;88.30;;;;;;5124617;28;20054;-48
2021/11/06 03:39:52;;;;;;;11.50;9.75;;;28.50;88.20;;;;;;5123935;28;20330;-48
2021/11/06 03:42:18;;;;;;;13.75;9.90;;;28.50;88.10;;;;;;5125314;28;20039;-47
2021/11/06 03:44:45;;;;;;;12.38;10.00;;;28.50;88.10;;;;;;5125319;28;20304;-46
2021/11/06 03:47:12;;;;;;;14.82;10.18;;;28.50;88.20;;;;;;5124659;28;20031;-47
2021/11/06 03:49:41;;;;;;;10.73;9.63;;;28.50;88.10;;;;;;5124981;28;20039;-47
2021/11/06 03:52:08;;;;;;;15.10;10.02;;;28.50;88.30;;;;;;5125629;28;20028;-52
2021/11/06 03:54:37;;;;;;;13.50;9.70;;;28.40;88.20;;;;;;5125241;28;20061;-49
2021/11/06 03:57:04;;;;;;;11.93;9.45;;;28.40;88.20;;;;;;5125307;28;20080;-50
2021/11/06 03:59:30;;;;;;;12.52;9.82;;;28.40;88.30;;;;;;5125060;28;20015;-47
2021/11/06 04:01:57;;;;;;;13.13;10.30;;;28.40;88.20;;;;;;5124622;28;20027;-48
2021/11/06 04:04:24;;;;;;;11.82;9.88;;;28.40;88.10;;;;;;5124899;28;20112;-47
2021/11/06 04:06:50;;;;;;;12.40;9.95;;;28.40;88.20;;;;;;5125622;28;20094;-48
2021/11/06 04:09:17;;;;;;;10.32;8.80;;;28.40;88.10;;;;;;5124618;28;20034;-47
2021/11/06 04:11:43;;;;;;;14.15;10.13;;;28.40;87.90;;;;;;5124546;28;20329;-48
2021/11/06 04:14:10;;;;;;;11.68;9.32;;;28.40;87.70;;;;;;5124706;28;20233;-49
2021/11/06 04:16:37;;;;;;;10.68;9.57;;;28.30;87.60;;;;;;5124443;28;20016;-52
2021/11/06 04:19:03;;;;;;;11.50;9.30;;;28.40;87.60;;;;;;5124464;28;20028;-48
2021/11/06 04:21:31;;;;;;;13.23;8.75;;;28.30;87.30;;;;;;5124687;28;20212;-50
2021/11/06 04:24:01;;;;;;;14.43;9.43;;;28.30;87.40;;;;;;5124668;28;20080;-52
2021/11/06 04:26:28;;;;;;;12.98;9.48;;;28.30;87.30;;;;;;5124847;28;20012;-54
2021/11/06 04:28:54;;;;;;;12.13;9.20;;;28.30;87.20;;;;;;5124856;28;20090;-51
2021/11/06 04:31:23;;;;;;;11.07;9.10;;;28.30;87.10;;;;;;5124487;28;20016;-56
2021/11/06 04:33:50;;;;;;;13.52;9.27;;;28.30;87.00;;;;;;5125079;28;20256;-52
2021/11/06 04:36:17;;;;;;;10.88;9.27;;;28.30;87.20;;;;;;5124677;28;20337;-52
2021/11/06 04:38:44;;;;;;;12.82;8.98;;;28.30;87.10;;;;;;5125147;28;20039;-57
2021/11/06 04:41:10;;;;;;;16.38;9.35;;;28.30;87.00;;;;;;5124574;28;20299;-53
2021/11/06 04:43:38;;;;;;;11.23;9.77;;;28.20;86.90;;;;;;5124924;28;20024;-53
2021/11/06 04:46:05;;;;;;;11.27;9.88;;;28.20;86.90;;;;;;5124330;28;20020;-51
2021/11/06 04:48:32;;;;;;;12.73;9.10;;;28.20;86.80;;;;;;5124417;28;20112;-51
2021/11/06 04:50:58;;;;;;;12.85;8.60;;;28.20;86.70;;;;;;5124534;28;20089;-47
2021/11/06 04:53:25;;;;;;;12.15;8.73;;;28.20;86.50;;;;;;5124595;28;20061;-47
2021/11/06 04:55:51;;;;;;;12.13;9.00;;;28.20;86.40;;;;;;5124270;28;20068;-48
2021/11/06 04:58:21;;;;;;;11.02;8.30;;;28.20;86.50;;;;;;5124560;28;20032;-50
2021/11/06 05:00:48;;;;;;;9.52;8.43;;;28.20;86.40;;;;;;5128176;28;20012;-51
2021/11/06 05:03:15;;;;;;;12.13;8.32;;;28.20;86.40;;;;;;5128436;28;20031;-56
2021/11/06 05:05:42;;;;;;;10.98;8.60;;;28.20;86.20;;;;;;5128369;28;20022;-53
2021/11/06 05:08:10;;;;;;;12.07;8.57;;;28.20;86.10;;;;;;5128655;28;20097;-57
2021/11/06 05:10:38;;;;;;;10.63;8.07;;;28.20;86.00;;;;;;5128310;28;20128;-53
2021/11/06 05:13:04;;;;;;;8.98;8.00;;;28.10;85.90;;;;;;5128574;28;20062;-52
2021/11/06 05:15:31;;;;;;;10.10;7.90;;;28.10;85.60;;;;;;5128163;28;20030;-56
2021/11/06 05:17:58;;;;;;;13.15;8.30;;;28.10;85.60;;;;;;5128285;28;20400;-57
2021/11/06 05:20:25;;;;;;;13.68;8.02;;;28.10;85.60;;;;;;5126973;28;20023;-57
2021/11/06 05:22:52;;;;;;;10.80;7.70;;;28.10;85.50;;;;;;5128447;28;20216;-49
2021/11/06 05:25:19;;;;;;;9.68;7.72;;;28.10;85.50;;;;;;5128001;28;20035;-51
2021/11/06 05:27:45;;;;;;;11.95;7.90;;;28.10;85.60;;;;;;5128130;28;20031;-54
2021/11/06 05:30:13;;;;;;;9.80;8.43;;;28.10;85.60;;;;;;5128154;28;20219;-53
2021/11/06 05:32:40;;;;;;;10.27;8.00;;;28.10;85.60;;;;;;5126568;28;20323;-55
2021/11/06 05:35:09;;;;;;;13.45;8.45;;;28.00;85.50;;;;;;5127816;27;20023;-54
2021/11/06 05:37:38;;;;;;;12.05;8.18;;;28.00;85.70;;;;;;5127983;28;20065;-51
2021/11/06 05:40:06;;;;;;;11.48;8.50;;;28.00;85.80;;;;;;5127977;28;20106;-51
2021/11/06 05:42:33;;;;;;;13.57;8.90;;;28.00;85.90;;;;;;5127786;28;20027;-54
2021/11/06 05:45:03;;;;;;;10.73;8.50;;;28.00;86.00;;;;;;5127468;28;20196;-55
2021/11/06 05:47:29;;;;;;;11.52;8.50;;;28.00;86.00;;;;;;5127515;28;20028;-52
2021/11/06 05:49:56;;;;;;;12.98;9.02;;;28.00;85.80;;;;;;5127437;28;20388;-53
2021/11/06 05:52:23;;;;;;;11.35;8.70;;;28.00;85.70;;;;;;5127501;28;20035;-55
2021/11/06 05:54:49;;;;;;;11.95;9.52;;;28.00;85.70;;;;;;5126247;28;20327;-54
2021/11/06 05:57:16;;;;;;;16.60;9.85;;;27.90;85.60;;;;;;5127465;27;20260;-53
2021/11/06 05:59:42;;;;;;;17.33;11.43;;;27.90;85.80;;;;;;5127177;28;20032;-53
2021/11/06 06:02:09;;;;;;;21.38;14.52;;;27.90;85.80;;;;;;5127506;28;20030;-53
2021/11/06 06:04:35;;;;;;;24.13;15.95;;;27.90;85.90;;;;;;5127278;27;20027;-54
2021/11/06 06:07:03;;;;;;;20.27;14.90;;;27.90;85.90;;;;;;5127584;28;20027;-54
2021/11/06 06:09:30;;;;;;;20.88;13.32;;;27.80;86.10;;;;;;5126816;28;20037;-53
2021/11/06 06:11:57;;;;;;;14.25;11.57;;;27.80;86.10;;;;;;5127085;28;20034;-54
2021/11/06 06:14:23;;;;;;;14.77;11.30;;;27.80;86.00;;;;;;5127172;28;20363;-54
2021/11/06 06:16:50;;;;;;;13.63;10.65;;;27.80;85.90;;;;;;5126865;28;20032;-55
2021/11/06 06:19:16;;;;;;;13.82;10.38;;;27.80;85.70;;;;;;5126900;27;20015;-57
2021/11/06 06:21:43;;;;;;;14.75;10.15;;;27.80;85.60;;;;;;5127315;28;20034;-55
2021/11/06 06:24:09;;;;;;;17.88;14.68;;;27.80;85.60;;;;;;5127081;28;20015;-54
2021/11/06 06:26:38;;;;;;;25.02;16.98;;;27.80;85.40;;;;;;5125917;28;20019;-55
2021/11/06 06:29:09;;;;;;;22.35;14.88;;;27.80;85.50;;;;;;5126673;28;20015;-54
2021/11/06 06:31:36;;;;;;;20.23;13.07;;;27.80;85.60;;;;;;5126576;27;20043;-54
2021/11/06 06:34:03;;;;;;;23.75;12.05;;;27.80;85.80;;;;;;5125531;28;20019;-55
2021/11/06 06:36:29;;;;;;;15.95;12.13;;;27.70;85.90;;;;;;5126494;27;20020;-54
2021/11/06 06:38:56;;;;;;;15.65;11.73;;;27.70;86.00;;;;;;5126470;28;20032;-50
2021/11/06 06:41:22;;;;;;;20.98;11.80;;;27.70;86.20;;;;;;5126788;28;20046;-50
2021/11/06 06:43:49;;;;;;;18.02;11.02;;;27.70;86.20;;;;;;5127103;28;20024;-53
2021/11/06 06:46:15;;;;;;;18.63;11.75;;;27.70;86.20;;;;;;5126340;28;20331;-54
2021/11/06 06:48:42;;;;;;;16.50;11.25;;;27.70;86.50;;;;;;5126503;28;20093;-55
2021/11/06 06:51:09;;;;;;;16.80;10.75;;;27.70;86.60;;;;;;5126811;28;20024;-54
2021/11/06 06:53:39;;;;;;;17.65;10.43;;;27.70;86.70;;;;;;5126720;27;20039;-54
2021/11/06 06:56:06;;;;;;;18.55;11.35;;;27.60;86.70;;;;;;5126346;28;20094;-55
2021/11/06 06:58:33;;;;;;;22.58;15.60;;;27.60;86.90;;;;;;5126502;28;20027;-53
2021/11/06 07:00:59;;;;;;;24.20;17.45;;;27.60;87.20;;;;;;5125835;28;20365;-54
2021/11/06 07:03:26;;;;;;;22.67;14.50;;;27.60;87.30;;;;;;5126409;27;20333;-52
2021/11/06 07:05:53;;;;;;;17.15;12.85;;;27.60;87.20;;;;;;5125965;28;20284;-49
2021/11/06 07:08:21;;;;;;;14.30;11.07;;;27.60;87.70;;;;;;5126354;28;20027;-52
2021/11/06 07:10:48;;;;;;;18.23;10.38;;;27.60;87.30;;;;;;5126696;28;20019;-55
2021/11/06 07:13:20;;;;;;;14.82;10.65;;;27.60;87.50;;;;;;5126273;28;20091;-54
2021/11/06 07:15:47;;;;;;;13.40;10.00;;;27.60;87.60;;;;;;5125847;28;20331;-50
2021/11/06 07:18:17;;;;;;;14.80;10.05;;;27.60;87.60;;;;;;5126028;28;20461;-54
2021/11/06 07:20:43;;;;;;;12.55;9.32;;;27.60;87.70;;;;;;5125916;28;20307;-53
2021/11/06 07:23:11;;;;;;;16.88;9.43;;;27.50;88.10;;;;;;5125737;28;20073;-55
2021/11/06 07:25:37;;;;;;;13.02;9.20;;;27.50;87.50;;;;;;5125728;28;20015;-51
2021/11/06 07:28:04;;;;;;;12.07;8.68;;;27.50;87.40;;;;;;5126146;28;20024;-56
2021/11/06 07:30:31;;;;;;;12.75;8.43;;;27.50;87.40;;;;;;5125530;28;20023;-57
2021/11/06 07:32:58;;;;;;;15.35;8.82;;;27.50;87.30;;;;;;5124572;28;20020;-48
2021/11/06 07:35:24;;;;;;;11.85;8.65;;;27.50;87.00;;;;;;5125521;28;20023;-54
2021/11/06 07:37:51;;;;;;;10.45;9.15;;;27.40;86.80;;;;;;5125401;28;20029;-48
2021/11/06 07:40:18;;;;;;;12.00;9.65;;;27.40;86.70;;;;;;5125474;28;20069;-48
2021/11/06 07:42:47;;;;;;;14.55;9.00;;;27.40;86.40;;;;;;5125623;28;20271;-49
2021/11/06 07:45:17;;;;;;;11.25;9.32;;;27.40;86.30;;;;;;5125110;28;20023;-50
2021/11/06 07:47:44;;;;;;;10.77;8.93;;;27.40;85.90;;;;;;5125097;28;20239;-48
2021/11/06 07:50:13;;;;;;;12.63;8.90;;;27.40;85.80;;;;;;5125167;28;20041;-45
2021/11/06 07:52:40;;;;;;;11.07;8.52;;;27.40;85.50;;;;;;5125173;28;20082;-44
2021/11/06 07:55:08;;;;;;;9.93;8.93;;;27.40;85.20;;;;;;5125050;28;20023;-50
2021/11/06 07:57:35;;;;;;;13.77;9.02;;;27.40;85.20;;;;;;5125182;28;20076;-52
2021/11/06 08:00:04;;;;;;;11.95;8.50;;;27.40;85.10;;;;;;5124847;28;20027;-53
2021/11/06 08:02:30;;;;;;;13.65;9.02;;;27.40;85.10;;;;;;5125188;28;20023;-53
2021/11/06 08:04:57;;;;;;;10.45;9.35;;;27.40;85.00;;;;;;5123963;28;20016;-58
2021/11/06 08:07:24;;;;;;;12.32;9.50;;;27.40;85.00;;;;;;5125361;28;20300;-56
2021/11/06 08:09:50;;;;;;;13.68;10.45;;;27.40;84.90;;;;;;5124824;28;20090;-57
2021/11/06 08:12:17;;;;;;;15.95;10.80;;;27.40;84.80;;;;;;5125016;28;20073;-56
2021/11/06 08:14:43;;;;;;;17.23;12.35;;;27.40;84.70;;;;;;5124581;28;20020;-48
2021/11/06 08:17:10;;;;;;;19.23;12.77;;;27.40;84.70;;;;;;5124762;28;20180;-55
2021/11/06 08:19:37;;;;;;;18.90;13.00;;;27.40;84.60;;;;;;5123580;28;20099;-53
2021/11/06 08:22:03;;;;;;;16.58;12.32;;;27.30;84.50;;;;;;5124465;28;20027;-54
2021/11/06 08:24:30;;;;;;;20.40;13.23;;;27.30;84.60;;;;;;5124667;28;20019;-55
2021/11/06 08:26:57;;;;;;;14.57;11.15;;;27.40;84.50;;;;;;5124590;28;20079;-55
2021/11/06 08:29:23;;;;;;;13.13;9.95;;;27.40;84.30;;;;;;5124433;28;20311;-54
2021/11/06 08:31:50;;;;;;;12.13;9.52;;;27.30;84.30;;;;;;5124474;28;20027;-48
2021/11/06 08:34:16;;;;;;;14.43;10.02;;;27.30;84.20;;;;;;5124343;28;20015;-50
2021/11/06 08:36:43;;;;;;;14.25;11.35;;;27.30;84.30;;;;;;5124286;28;20124;-58
2021/11/06 08:39:10;;;;;;;23.73;12.55;;;27.30;84.70;;;;;;5124437;28;20270;-55
2021/11/06 08:41:36;;;;;;;18.25;12.57;;;27.30;85.00;;;;;;5124252;28;20039;-53
2021/11/06 08:44:03;;;;;;;16.77;11.05;;;27.30;85.20;;;;;;5124187;28;20102;-53
2021/11/06 08:46:30;;;;;;;13.50;10.13;;;27.20;85.40;;;;;;5124292;28;20069;-52
2021/11/06 08:48:56;;;;;;;14.02;9.40;;;27.20;85.60;;;;;;5124193;28;20050;-55
2021/11/06 08:51:23;;;;;;;12.98;9.35;;;27.20;85.60;;;;;;5124233;28;20073;-56
2021/11/06 08:53:49;;;;;;;13.27;9.68;;;27.20;85.60;;;;;;5124809;28;20032;-49
2021/11/06 08:56:17;;;;;;;13.30;10.05;;;27.20;85.50;;;;;;5124243;28;20308;-49
2021/11/06 08:58:44;;;;;;;12.85;9.98;;;27.20;85.50;;;;;;5124548;28;20092;-47
2021/11/06 09:01:11;;;;;;;12.98;10.40;;;27.20;85.50;;;;;;5124063;28;20020;-48
2021/11/06 09:03:38;;;;;;;14.52;11.00;;;27.20;85.40;;;;;;5124639;28;20308;-54
2021/11/06 09:06:05;;;;;;;15.05;10.90;;;27.20;85.30;;;;;;5124094;28;20042;-50
2021/11/06 09:08:33;;;;;;;11.48;8.80;;;27.20;85.30;;;;;;5124575;28;20031;-52
2021/11/06 09:11:04;;;;;;;12.85;8.80;;;27.20;85.20;;;;;;5124972;28;20069;-55
2021/11/06 09:13:31;;;;;;;10.95;9.05;;;27.20;85.20;;;;;;5125463;28;20027;-56
2021/11/06 09:15:59;;;;;;;10.02;7.88;;;27.20;85.10;;;;;;5124273;28;20185;-53
2021/11/06 09:18:26;;;;;;;11.85;8.38;;;27.20;85.00;;;;;;5124396;28;20027;-53
2021/11/06 09:20:53;;;;;;;10.68;7.80;;;27.20;85.00;;;;;;5123892;28;20041;-51
2021/11/06 09:23:20;;;;;;;10.80;7.93;;;27.20;85.00;;;;;;5124412;28;20089;-53
2021/11/06 09:25:46;;;;;;;12.18;7.93;;;27.20;85.00;;;;;;5123848;28;20019;-55
2021/11/06 09:28:13;;;;;;;10.23;7.15;;;27.20;85.00;;;;;;5124228;28;20099;-54
2021/11/06 09:30:39;;;;;;;12.10;7.70;;;27.20;85.10;;;;;;5123937;28;20022;-56
2021/11/06 09:33:06;;;;;;;9.82;7.68;;;27.20;85.10;;;;;;5124234;28;20210;-55
2021/11/06 09:35:33;;;;;;;10.88;6.95;;;27.20;84.90;;;;;;5123804;28;20077;-53
2021/11/06 09:37:59;;;;;;;8.63;6.93;;;27.20;85.00;;;;;;5124046;28;20023;-56
2021/11/06 09:40:26;;;;;;;10.82;6.68;;;27.20;84.90;;;;;;5124014;28;20014;-52
2021/11/06 09:42:53;;;;;;;10.27;7.07;;;27.20;84.70;;;;;;5124029;28;20246;-48
2021/11/06 09:45:19;;;;;;;8.07;6.95;;;27.20;84.70;;;;;;5124931;28;20044;-53
2021/11/06 09:47:47;;;;;;;8.65;6.85;;;27.20;84.70;;;;;;5127458;28;20112;-54
2021/11/06 09:50:17;;;;;;;10.07;7.22;;;27.10;84.60;;;;;;5127427;28;20019;-55
2021/11/06 09:52:47;;;;;;;10.60;6.60;;;27.20;84.50;;;;;;5127748;28;20366;-54
2021/11/06 09:55:19;;;;;;;9.35;6.68;;;27.10;84.40;;;;;;5127448;28;20026;-50
2021/11/06 09:57:45;;;;;;;9.40;6.57;;;27.10;84.20;;;;;;5127471;27;20046;-56
2021/11/06 10:00:14;;;;;;;7.40;6.45;;;27.10;84.00;;;;;;5127252;28;20330;-53
2021/11/06 10:02:42;;;;;;;10.18;6.88;;;27.20;84.00;;;;;;5127421;28;20367;-52
2021/11/06 10:05:10;;;;;;;8.70;6.35;;;27.10;83.90;;;;;;5126858;28;20015;-48
2021/11/06 10:07:38;;;;;;;7.50;6.75;;;27.10;83.80;;;;;;5127391;28;20019;-51
2021/11/06 10:10:11;;;;;;;8.90;6.55;;;27.20;83.70;;;;;;5127072;28;20371;-45
2021/11/06 10:12:52;;;;;;;9.52;6.78;;;27.20;83.60;;;;;;5127272;27;20240;-52
2021/11/06 10:15:23;;;;;;;10.93;6.45;;;27.10;83.70;;;;;;5127004;28;20020;-54
2021/11/06 10:17:50;;;;;;;8.73;6.45;;;27.10;83.70;;;;;;5126967;28;20029;-51
2021/11/06 10:20:30;;;;;;;9.50;6.57;;;27.10;83.60;;;;;;5126884;28;20019;-54
2021/11/06 10:23:01;;;;;;;9.43;6.95;;;27.10;83.60;;;;;;5126969;28;20318;-51
2021/11/06 10:25:28;;;;;;;10.15;6.40;;;27.10;83.50;;;;;;5126721;28;20302;-51
2021/11/06 10:27:58;;;;;;;15.77;7.82;;;27.10;83.50;;;;;;5127159;28;20225;-54
2021/11/06 10:30:35;;;;;;;12.45;6.60;;;27.10;83.90;;;;;;5126584;27;20189;-53
2021/11/06 10:33:12;;;;;;;12.25;6.60;;;27.10;83.60;;;;;;5126960;28;20058;-53
2021/11/06 10:35:44;;;;;;;9.20;6.63;;;27.10;83.60;;;;;;5126495;27;20026;-49
2021/11/06 10:38:13;;;;;;;14.68;7.10;;;27.10;83.70;;;;;;5126941;28;20028;-49
2021/11/06 10:40:47;;;;;;;11.10;7.22;;;27.00;83.80;;;;;;5126455;28;20078;-47
2021/11/06 10:43:17;;;;;;;10.65;6.93;;;27.00;84.10;;;;;;5126789;28;20311;-50
2021/11/06 10:45:48;;;;;;;11.18;6.88;;;27.00;84.20;;;;;;5126213;28;20019;-53
2021/11/06 10:48:19;;;;;;;15.85;7.60;;;27.00;84.50;;;;;;5126021;28;20094;-53
2021/11/06 10:51:07;;;;;;;21.50;8.07;;;27.00;84.60;;;;;;5126231;28;20028;-51
2021/11/06 10:53:53;;;;;;;20.38;8.05;;;27.00;84.80;;;;;;5126466;28;20055;-53
2021/11/06 10:56:30;;;;;;;14.32;7.88;;;27.00;85.00;;;;;;5126080;28;20016;-55
2021/11/06 10:59:10;;;;;;;16.77;7.43;;;27.00;85.10;;;;;;5125762;28;20091;-54
2021/11/06 11:01:39;;;;;;;12.93;7.95;;;27.00;85.20;;;;;;5125860;28;20095;-55
2021/11/06 11:04:12;;;;;;;13.40;7.78;;;27.00;84.80;;;;;;5125825;28;20022;-54
2021/11/06 11:06:42;;;;;;;;;;;27.00;84.50;;;;;;5126179;28;20024;-56
2021/11/06 11:09:18;;;;;;;12.98;7.90;;;27.00;84.30;;;;;;5125942;28;20081;-54
2021/11/06 11:11:46;;;;;;;13.57;7.97;;;27.00;84.60;;;;;;5125795;28;20016;-54
2021/11/06 11:14:24;;;;;;;9.55;7.50;;;27.00;84.80;;;;;;5125861;28;20073;-53
2021/11/06 11:17:04;;;;;;;16.98;8.25;;;27.00;84.80;;;;;;5125570;28;20045;-54
2021/11/06 11:19:45;;;;;;;10.30;7.22;;;27.00;85.00;;;;;;5124503;28;20023;-57
2021/11/06 11:22:31;;;;;;;13.40;8.15;;;27.00;85.10;;;;;;5125636;27;20021;-58
2021/11/06 11:24:59;;;;;;;18.55;7.72;;;27.10;85.60;;;;;;5125703;28;20051;-56
2021/11/06 11:27:25;;;;;;;15.70;8.43;;;27.10;85.70;;;;;;5125624;28;20089;-55
2021/11/06 11:29:52;;;;;;;19.23;9.07;;;27.00;85.40;;;;;;5125662;28;20020;-54
2021/11/06 11:32:19;;;;;;;14.25;8.57;;;27.00;85.30;;;;;;5125409;28;20027;-55
2021/11/06 11:34:47;;;;;;;17.70;8.98;;;27.10;85.60;;;;;;5125285;28;20020;-57
2021/11/06 11:37:15;;;;;;;16.23;7.95;;;27.10;85.60;;;;;;5125326;28;20121;-57
2021/11/06 11:39:43;;;;;;;16.77;8.23;;;27.10;85.50;;;;;;5125204;28;20030;-55
2021/11/06 11:42:40;;;;;;;17.25;8.50;;;27.10;85.70;;;;;;5125471;28;20241;-54
2021/11/06 11:45:26;;;;;;;11.90;8.00;;;27.10;85.30;;;;;;5125074;28;20265;-55
2021/11/06 11:48:20;;;;;;;13.93;8.30;;;27.10;84.80;;;;;;5125159;28;20040;-55
2021/11/06 11:50:49;;;;;;;13.73;8.00;;;27.10;85.10;;;;;;5124679;28;20059;-55
2021/11/06 11:53:26;;;;;;;12.32;8.07;;;27.10;84.90;;;;;;5125270;28;20024;-54
2021/11/06 11:55:55;;;;;;;15.68;8.40;;;27.10;84.80;;;;;;5124903;28;20028;-53
2021/11/06 11:58:25;;;;;;;16.45;7.60;;;27.20;84.90;;;;;;5125344;28;20051;-52
2021/11/06 12:00:57;;;;;;;14.30;7.90;;;27.10;84.70;;;;;;5124625;28;20234;-51
2021/11/06 12:03:33;;;;;;;13.27;7.72;;;27.20;84.70;;;;;;5125126;28;20020;-49
2021/11/06 12:06:20;;;;;;;26.00;9.02;;;27.20;85.00;;;;;;5124833;28;20357;-56
2021/11/06 12:08:48;;;;;;;17.05;8.00;;;27.20;85.30;;;;;;5125204;28;20288;-53
2021/11/06 12:11:18;;;;;;;18.13;8.23;;;27.20;85.40;;;;;;5124727;28;20031;-53
2021/11/06 12:13:49;;;;;;;12.73;8.50;;;27.20;85.60;;;;;;5125178;28;20020;-54
2021/11/06 12:16:19;;;;;;;22.55;9.23;;;27.20;85.70;;;;;;5125018;28;20019;-53
2021/11/06 12:18:56;;;;;;;16.58;8.68;;;27.20;85.80;;;;;;5124997;28;20027;-55
2021/11/06 12:21:32;;;;;;;17.38;8.10;;;27.20;85.60;;;;;;5124638;28;20020;-55
2021/11/06 12:24:01;;;;;;;18.05;8.07;;;27.20;85.60;;;;;;5124608;28;20129;-54
2021/11/06 12:26:33;;;;;;;18.95;8.40;;;27.20;85.80;;;;;;5124682;28;20023;-54
2021/11/06 12:29:11;;;;;;;15.68;8.57;;;27.20;85.80;;;;;;5124664;28;20023;-55
2021/11/06 12:31:40;;;;;;;14.30;8.05;;;27.20;85.90;;;;;;5124600;28;20027;-56
2021/11/06 12:34:08;;;;;;;18.77;8.25;;;27.20;85.90;;;;;;5124559;28;20031;-52
2021/11/06 12:36:43;;;;;;;14.77;7.70;;;27.20;86.10;;;;;;5124406;28;20011;-54
2021/11/06 12:39:13;;;;;;;15.10;8.15;;;27.30;86.30;;;;;;5124683;28;20211;-55